createdAt,value
2018-09-20T00:00:36.912Z,20.70
2018-09-20T00:03:05.393Z,20.70
2018-09-20T00:05:33.873Z,20.70
2018-09-20T00:08:02.351Z,20.80
2018-09-20T00:10:30.837Z,20.70
2018-09-20T00:12:59.299Z,20.80
2018-09-20T00:15:27.796Z,20.80
2018-09-20T00:17:56.265Z,20.70
2018-09-20T00:20:24.777Z,20.70
2018-09-20T00:22:53.273Z,20.70
2018-09-20T00:25:21.725Z,20.70
2018-09-20T00:27:50.248Z,20.70
2018-09-20T00:30:18.706Z,20.70
2018-09-20T00:32:47.184Z,20.70
2018-09-20T00:35:15.633Z,20.70
2018-09-20T00:37:44.158Z,20.60
2018-09-20T00:40:12.617Z,20.60
2018-09-20T00:42:41.105Z,20.60
2018-09-20T00:45:09.581Z,20.50
2018-09-20T00:47:38.066Z,20.50
2018-09-20T00:50:06.794Z,20.50
2018-09-20T00:52:35.237Z,20.50
2018-09-20T00:55:03.801Z,20.40
2018-09-20T00:57:32.288Z,20.40
2018-09-20T01:00:00.790Z,20.30
2018-09-20T01:02:29.265Z,20.40
2018-09-20T01:04:57.973Z,20.40
2018-09-20T01:07:26.428Z,20.30
2018-09-20T01:09:54.918Z,20.30
2018-09-20T01:12:23.465Z,20.20
2018-09-20T01:14:51.969Z,20.20
2018-09-20T01:17:20.469Z,20.20
2018-09-20T01:19:48.934Z,20.20
2018-09-20T01:22:17.594Z,20.20
2018-09-20T01:24:46.116Z,20.10
2018-09-20T01:27:14.665Z,20.10
2018-09-20T01:29:43.153Z,20.00
2018-09-20T01:32:11.877Z,20.00
2018-09-20T01:34:40.332Z,20.00
2018-09-20T01:37:08.822Z,19.90
2018-09-20T01:39:37.291Z,19.90
2018-09-20T01:42:05.844Z,19.90
2018-09-20T01:44:34.266Z,19.80
2018-09-20T01:47:02.744Z,19.80
2018-09-20T01:50:55.682Z,19.70
2018-09-20T01:53:24.215Z,19.70
2018-09-20T01:55:52.670Z,19.70
2018-09-20T01:58:21.138Z,19.60
2018-09-20T02:00:49.645Z,19.60
2018-09-20T02:03:18.117Z,19.60
2018-09-20T02:05:46.609Z,19.60
2018-09-20T02:08:15.116Z,19.60
2018-09-20T02:10:43.572Z,19.50
2018-09-20T02:13:12.033Z,19.50
2018-09-20T02:15:40.528Z,19.50
2018-09-20T02:18:08.994Z,19.50
2018-09-20T02:20:37.497Z,19.40
2018-09-20T02:23:05.968Z,19.40
2018-09-20T02:25:34.466Z,19.40
2018-09-20T02:28:02.921Z,19.40
2018-09-20T02:30:31.423Z,19.40
2018-09-20T02:32:59.902Z,19.40
2018-09-20T02:35:28.405Z,19.40
2018-09-20T02:37:56.858Z,19.40
2018-09-20T02:40:25.392Z,19.40
2018-09-20T02:42:53.809Z,19.40
2018-09-20T02:45:22.338Z,19.30
2018-09-20T02:47:50.841Z,19.30
2018-09-20T02:50:19.305Z,19.20
2018-09-20T02:52:47.768Z,19.30
2018-09-20T02:55:16.283Z,19.30
2018-09-20T02:57:44.833Z,19.30
2018-09-20T03:00:13.297Z,19.30
2018-09-20T03:02:41.812Z,19.30
2018-09-20T03:05:10.237Z,19.30
2018-09-20T03:07:38.753Z,19.30
2018-09-20T03:10:07.285Z,19.30
2018-09-20T03:12:35.716Z,19.20
2018-09-20T03:15:04.596Z,19.20
2018-09-20T03:17:33.133Z,19.20
2018-09-20T03:20:02.374Z,19.20
2018-09-20T03:22:30.880Z,19.20
2018-09-20T03:24:59.657Z,19.20
2018-09-20T03:27:28.132Z,19.20
2018-09-20T03:29:56.615Z,19.20
2018-09-20T03:32:26.113Z,19.10
2018-09-20T03:34:54.603Z,19.10
2018-09-20T03:37:23.068Z,19.10
2018-09-20T03:39:51.579Z,19.10
2018-09-20T03:42:20.047Z,19.00
2018-09-20T03:44:48.542Z,19.00
2018-09-20T03:47:17.062Z,19.00
2018-09-20T03:49:45.505Z,19.00
2018-09-20T03:52:13.979Z,19.00
2018-09-20T03:54:42.451Z,18.90
2018-09-20T03:57:10.949Z,18.90
2018-09-20T03:59:39.405Z,19.00
2018-09-20T04:02:07.926Z,18.90
2018-09-20T04:04:36.385Z,18.90
2018-09-20T04:07:05.094Z,18.90
2018-09-20T04:09:33.592Z,18.90
2018-09-20T04:12:02.048Z,18.80
2018-09-20T04:22:00.681Z,18.80
2018-09-20T04:24:29.148Z,18.70
2018-09-20T04:26:57.642Z,18.70
2018-09-20T04:29:26.134Z,18.70
2018-09-20T04:31:54.671Z,18.60
2018-09-20T04:34:23.102Z,18.60
2018-09-20T04:36:51.977Z,18.60
2018-09-20T04:39:20.469Z,18.60
2018-09-20T04:41:48.948Z,18.50
2018-09-20T04:44:17.425Z,18.50
2018-09-20T04:46:45.914Z,18.60
2018-09-20T04:49:14.416Z,18.50
2018-09-20T04:51:42.881Z,18.50
2018-09-20T04:54:11.350Z,18.60
2018-09-20T04:56:39.869Z,18.60
2018-09-20T04:59:08.324Z,18.60
2018-09-20T05:01:36.817Z,18.60
2018-09-20T05:04:05.277Z,18.60
2018-09-20T05:06:33.757Z,18.60
2018-09-20T05:09:02.279Z,18.60
2018-09-20T05:11:30.733Z,18.50
2018-09-20T05:13:59.225Z,18.60
2018-09-20T05:16:27.696Z,18.60
2018-09-20T05:18:56.183Z,18.50
2018-09-20T05:21:24.634Z,18.50
2018-09-20T05:23:53.457Z,18.60
2018-09-20T05:26:21.956Z,18.60
2018-09-20T05:28:50.410Z,18.60
2018-09-20T05:31:18.973Z,18.60
2018-09-20T05:33:47.409Z,18.60
2018-09-20T05:36:15.880Z,18.60
2018-09-20T05:38:44.323Z,18.60
2018-09-20T05:41:12.801Z,18.60
2018-09-20T05:43:41.400Z,18.60
2018-09-20T05:46:09.797Z,18.60
2018-09-20T05:48:38.277Z,18.60
2018-09-20T05:51:06.783Z,18.60
2018-09-20T05:53:35.294Z,18.60
2018-09-20T05:56:03.793Z,18.60
2018-09-20T05:58:32.360Z,18.60
2018-09-20T06:01:00.889Z,18.60
2018-09-20T06:03:29.381Z,18.60
2018-09-20T06:05:58.214Z,18.60
2018-09-20T06:08:26.650Z,18.60
2018-09-20T06:10:55.173Z,18.70
2018-09-20T06:13:23.977Z,18.70
2018-09-20T06:15:52.505Z,18.70
2018-09-20T06:18:21.035Z,18.70
2018-09-20T06:20:49.679Z,18.70
2018-09-20T06:23:18.141Z,18.60
2018-09-20T06:25:46.607Z,18.60
2018-09-20T06:28:15.114Z,18.60
2018-09-20T06:30:43.594Z,18.60
2018-09-20T06:33:12.186Z,18.70
2018-09-20T06:35:40.688Z,18.70
2018-09-20T06:38:09.140Z,18.80
2018-09-20T06:40:37.638Z,18.80
2018-09-20T06:43:06.204Z,18.90
2018-09-20T06:45:34.649Z,19.00
2018-09-20T06:48:03.262Z,19.10
2018-09-20T06:50:31.806Z,19.20
2018-09-20T06:53:00.256Z,19.20
2018-09-20T06:55:28.705Z,19.30
2018-09-20T06:57:57.335Z,19.40
2018-09-20T07:00:25.785Z,19.60
2018-09-20T07:02:54.286Z,19.70
2018-09-20T07:05:22.764Z,19.80
2018-09-20T07:07:51.236Z,19.90
2018-09-20T07:10:19.705Z,19.90
2018-09-20T07:12:48.180Z,20.00
2018-09-20T07:15:16.731Z,20.10
2018-09-20T07:17:45.401Z,20.10
2018-09-20T07:20:13.860Z,20.10
2018-09-20T07:22:42.338Z,20.00
2018-09-20T07:25:10.862Z,19.90
2018-09-20T07:27:39.273Z,19.90
2018-09-20T07:30:07.849Z,20.00
2018-09-20T07:32:36.404Z,19.90
2018-09-20T07:35:05.245Z,20.00
2018-09-20T07:37:33.724Z,20.00
2018-09-20T07:40:02.262Z,20.10
2018-09-20T07:42:30.842Z,20.20
2018-09-20T07:44:59.433Z,20.30
2018-09-20T07:47:27.976Z,20.30
2018-09-20T07:49:56.421Z,20.40
2018-09-20T07:52:25.259Z,20.50
2018-09-20T07:54:53.703Z,20.50
2018-09-20T07:57:22.352Z,20.60
2018-09-20T07:59:50.873Z,20.70
2018-09-20T08:02:19.358Z,20.80
2018-09-20T08:04:47.860Z,20.90
2018-09-20T08:07:16.353Z,21.10
2018-09-20T08:09:44.829Z,21.20
2018-09-20T08:12:13.278Z,21.30
2018-09-20T08:14:41.776Z,21.50
2018-09-20T08:17:10.325Z,21.70
2018-09-20T08:19:38.833Z,21.70
2018-09-20T08:22:07.333Z,21.70
2018-09-20T08:24:35.783Z,21.80
2018-09-20T08:27:04.237Z,21.80
2018-09-20T08:29:32.644Z,21.90
2018-09-20T08:32:01.097Z,21.90
2018-09-20T08:34:29.522Z,22.00
2018-09-20T08:36:57.959Z,22.10
2018-09-20T08:39:26.365Z,22.10
2018-09-20T08:41:54.841Z,22.10
2018-09-20T08:44:23.261Z,22.00
2018-09-20T08:46:51.718Z,22.00
2018-09-20T08:49:20.172Z,22.20
2018-09-20T08:51:48.621Z,22.50
2018-09-20T08:54:17.053Z,22.60
2018-09-20T08:56:45.511Z,22.80
2018-09-20T08:59:13.953Z,23.00
2018-09-20T09:01:42.385Z,23.20
2018-09-20T09:04:10.862Z,23.40
2018-09-20T09:06:39.273Z,23.40
2018-09-20T09:09:09.410Z,23.30
2018-09-20T09:11:38.600Z,23.40
2018-09-20T09:14:07.487Z,23.70
2018-09-20T09:16:35.936Z,23.90
2018-09-20T09:19:04.457Z,24.10
2018-09-20T09:21:32.900Z,24.30
2018-09-20T09:24:01.320Z,24.30
2018-09-20T09:26:29.789Z,24.30
2018-09-20T09:28:58.233Z,24.40
2018-09-20T09:31:26.688Z,24.60
2018-09-20T09:33:55.104Z,24.50
2018-09-20T09:36:23.620Z,24.60
2018-09-20T09:38:52.095Z,24.60
2018-09-20T09:41:20.512Z,24.90
2018-09-20T09:43:48.929Z,25.20
2018-09-20T09:46:17.414Z,25.30
2018-09-20T09:48:45.833Z,25.60
2018-09-20T09:51:14.326Z,25.80
2018-09-20T09:53:42.793Z,25.80
2018-09-20T09:56:11.377Z,25.80
2018-09-20T09:58:39.784Z,25.90
2018-09-20T10:01:08.248Z,26.00
2018-09-20T10:03:36.733Z,26.20
2018-09-20T10:06:05.177Z,26.10
2018-09-20T10:08:33.598Z,26.00
2018-09-20T10:11:02.028Z,26.00
2018-09-20T10:13:30.518Z,25.80
2018-09-20T10:15:58.980Z,25.80
2018-09-20T10:18:27.410Z,25.70
2018-09-20T10:20:55.816Z,25.60
2018-09-20T10:23:24.256Z,25.40
2018-09-20T10:25:52.694Z,25.50
2018-09-20T10:28:21.098Z,25.30
2018-09-20T10:30:49.537Z,25.30
2018-09-20T10:33:17.940Z,25.30
2018-09-20T10:35:46.397Z,25.30
2018-09-20T10:38:14.904Z,25.40
2018-09-20T10:40:43.351Z,25.50
2018-09-20T10:43:11.767Z,25.60
2018-09-20T10:45:40.215Z,25.70
2018-09-20T10:48:08.641Z,25.80
2018-09-20T10:50:37.096Z,25.90
2018-09-20T10:53:05.500Z,25.90
2018-09-20T10:55:33.930Z,26.00
2018-09-20T10:58:02.350Z,26.10
2018-09-20T11:00:30.885Z,26.20
2018-09-20T11:02:59.392Z,26.40
2018-09-20T11:05:27.817Z,26.40
2018-09-20T11:07:56.241Z,26.40
2018-09-20T11:10:24.766Z,26.40
2018-09-20T11:12:53.272Z,26.50
2018-09-20T11:15:21.692Z,26.40
2018-09-20T11:17:50.143Z,26.50
2018-09-20T11:20:18.610Z,26.50
2018-09-20T11:22:47.040Z,26.50
2018-09-20T11:25:15.488Z,26.50
2018-09-20T11:27:43.935Z,26.60
2018-09-20T11:30:12.384Z,26.80
2018-09-20T11:32:40.809Z,26.80
2018-09-20T11:35:09.269Z,26.80
2018-09-20T11:37:37.686Z,26.70
2018-09-20T11:40:06.220Z,26.60
2018-09-20T11:42:34.633Z,26.40
2018-09-20T11:45:03.073Z,26.40
2018-09-20T11:47:31.492Z,26.50
2018-09-20T11:50:00.014Z,26.60
2018-09-20T11:52:28.464Z,26.60
2018-09-20T11:54:56.906Z,26.80
2018-09-20T11:57:25.325Z,26.80
2018-09-20T11:59:53.728Z,27.00
2018-09-20T12:02:22.141Z,27.10
2018-09-20T12:04:50.583Z,27.20
2018-09-20T12:07:19.035Z,27.20
2018-09-20T12:09:47.469Z,27.20
2018-09-20T12:12:15.905Z,27.30
2018-09-20T12:14:44.302Z,27.30
2018-09-20T12:17:12.740Z,27.50
2018-09-20T12:19:41.153Z,27.70
2018-09-20T12:22:09.905Z,27.80
2018-09-20T12:24:38.488Z,27.90
2018-09-20T12:27:06.989Z,27.90
2018-09-20T12:29:35.512Z,27.90
2018-09-20T12:32:04.008Z,28.00
2018-09-20T12:34:32.449Z,27.90
2018-09-20T12:37:00.995Z,28.20
2018-09-20T12:39:29.525Z,28.20
2018-09-20T12:41:58.014Z,28.40
2018-09-20T12:44:26.549Z,28.50
2018-09-20T12:46:55.073Z,28.30
2018-09-20T12:49:23.860Z,28.60
2018-09-20T12:51:52.326Z,28.80
2018-09-20T12:54:20.884Z,29.00
2018-09-20T12:56:49.321Z,29.20
2018-09-20T12:59:17.836Z,29.30
2018-09-20T13:01:46.368Z,29.60
2018-09-20T13:04:14.982Z,29.70
2018-09-20T13:06:43.492Z,29.90
2018-09-20T13:09:11.946Z,30.00
2018-09-20T13:11:40.446Z,30.10
2018-09-20T13:14:09.026Z,30.30
2018-09-20T13:16:37.569Z,30.40
2018-09-20T13:19:06.066Z,30.50
2018-09-20T13:21:34.534Z,30.70
2018-09-20T13:24:02.981Z,30.80
2018-09-20T13:26:31.491Z,31.00
2018-09-20T13:28:59.969Z,31.10
2018-09-20T13:31:28.473Z,31.20
2018-09-20T13:33:56.927Z,31.40
2018-09-20T13:36:25.458Z,31.40
2018-09-20T13:38:53.950Z,31.40
2018-09-20T13:41:22.381Z,31.30
2018-09-20T13:43:50.849Z,31.40
2018-09-20T13:46:19.307Z,31.70
2018-09-20T13:48:47.924Z,31.80
2018-09-20T13:51:16.509Z,32.10
2018-09-20T13:53:45.062Z,32.10
2018-09-20T13:56:13.701Z,32.30
2018-09-20T13:58:46.408Z,32.50
2018-09-20T14:01:14.944Z,32.60
2018-09-20T14:03:43.476Z,32.60
2018-09-20T14:06:11.990Z,32.30
2018-09-20T14:08:40.502Z,31.80
2018-09-20T14:11:09.129Z,31.30
2018-09-20T14:13:37.560Z,30.80
2018-09-20T14:16:06.073Z,30.50
2018-09-20T14:18:35.205Z,30.20
2018-09-20T14:21:03.751Z,29.80
2018-09-20T14:23:32.271Z,29.40
2018-09-20T14:26:00.784Z,29.20
2018-09-20T14:28:29.307Z,29.00
2018-09-20T14:30:57.773Z,28.90
2018-09-20T14:33:26.230Z,28.80
2018-09-20T14:35:54.725Z,28.70
2018-09-20T14:38:23.193Z,28.80
2018-09-20T14:40:51.764Z,28.80
2018-09-20T14:43:21.184Z,28.70
2018-09-20T14:45:49.613Z,28.70
2018-09-20T14:48:18.055Z,28.60
2018-09-20T14:50:46.565Z,28.60
2018-09-20T14:53:15.005Z,28.60
2018-09-20T14:55:43.432Z,28.60
2018-09-20T14:58:12.147Z,28.70
2018-09-20T15:00:40.760Z,28.60
2018-09-20T15:03:09.298Z,28.50
2018-09-20T15:05:37.909Z,28.40
2018-09-20T15:08:06.538Z,28.40
2018-09-20T15:10:35.024Z,28.30
2018-09-20T15:13:03.510Z,28.30
2018-09-20T15:15:31.943Z,28.30
2018-09-20T15:18:00.429Z,28.20
2018-09-20T15:20:28.957Z,28.20
2018-09-20T15:22:57.463Z,28.20
2018-09-20T15:25:25.920Z,28.20
2018-09-20T15:27:54.345Z,28.20
2018-09-20T15:30:22.744Z,28.20
2018-09-20T15:32:51.226Z,28.30
2018-09-20T15:35:19.716Z,28.20
2018-09-20T15:37:48.233Z,28.20
2018-09-20T15:40:16.847Z,28.10
2018-09-20T15:42:45.403Z,28.10
2018-09-20T15:45:13.925Z,28.10
2018-09-20T15:47:42.433Z,28.10
2018-09-20T15:50:10.900Z,28.00
2018-09-20T15:52:39.467Z,28.00
2018-09-20T15:55:07.944Z,28.00
2018-09-20T15:57:36.558Z,28.00
2018-09-20T16:00:05.797Z,27.90
2018-09-20T16:02:34.268Z,27.80
2018-09-20T16:05:02.747Z,27.70
2018-09-20T16:07:31.276Z,27.70
2018-09-20T16:09:59.961Z,27.60
2018-09-20T16:12:28.617Z,27.60
2018-09-20T16:14:57.183Z,27.60
2018-09-20T16:17:25.669Z,27.60
2018-09-20T16:19:54.663Z,27.50
2018-09-20T16:22:23.202Z,27.50
2018-09-20T16:24:51.729Z,27.40
2018-09-20T16:27:20.314Z,27.40
2018-09-20T16:30:01.090Z,27.40
2018-09-20T16:32:39.472Z,27.30
2018-09-20T16:35:19.728Z,27.30
2018-09-20T16:39:00.362Z,27.30
2018-09-20T16:41:34.426Z,27.30
2018-09-20T16:44:02.997Z,27.20
2018-09-20T16:46:31.480Z,27.10
2018-09-20T16:49:00.034Z,27.10
2018-09-20T16:51:28.596Z,27.00
2018-09-20T16:53:57.059Z,26.90
2018-09-20T16:56:25.538Z,26.90
2018-09-20T16:58:54.823Z,26.80
2018-09-20T17:01:23.709Z,26.80
2018-09-20T17:03:52.118Z,26.80
2018-09-20T17:06:21.094Z,26.70
2018-09-20T17:08:50.642Z,26.70
2018-09-20T17:11:19.141Z,26.60
2018-09-20T17:13:48.038Z,26.60
2018-09-20T17:16:16.568Z,26.40
2018-09-20T17:18:45.097Z,26.40
2018-09-20T17:21:13.584Z,26.30
2018-09-20T17:23:42.051Z,26.30
2018-09-20T17:26:10.553Z,26.10
2018-09-20T17:28:38.965Z,26.00
2018-09-20T17:31:07.466Z,26.00
2018-09-20T17:33:36.087Z,25.90
2018-09-20T17:36:05.041Z,25.70
2018-09-20T17:38:34.553Z,25.70
2018-09-20T17:41:16.243Z,25.60
2018-09-20T17:43:49.149Z,25.60
2018-09-20T17:46:17.587Z,25.50
2018-09-20T17:48:46.173Z,25.50
2018-09-20T17:51:16.069Z,25.50
2018-09-20T17:53:45.128Z,25.50
2018-09-20T17:56:14.233Z,25.40
2018-09-20T17:58:43.707Z,25.40
2018-09-20T18:01:12.176Z,25.40
2018-09-20T18:03:40.672Z,25.30
2018-09-20T18:06:09.088Z,25.40
2018-09-20T18:08:37.636Z,25.30
2018-09-20T18:11:06.733Z,25.30
2018-09-20T18:13:35.217Z,25.20
2018-09-20T18:16:06.307Z,25.20
2018-09-20T18:18:35.066Z,25.20
2018-09-20T18:21:03.553Z,25.10
2018-09-20T18:23:32.905Z,25.10
2018-09-20T18:26:01.460Z,25.00
2018-09-20T18:28:30.195Z,25.00
2018-09-20T18:30:58.743Z,24.90
2018-09-20T18:33:28.766Z,24.90
2018-09-20T18:35:57.633Z,24.80
2018-09-20T18:38:26.849Z,24.80
2018-09-20T18:40:55.294Z,24.80
2018-09-20T18:43:23.783Z,24.80
2018-09-20T18:45:52.201Z,24.80
2018-09-20T18:48:20.647Z,24.70
2018-09-20T18:50:49.197Z,24.60
2018-09-20T18:53:17.625Z,24.60
2018-09-20T18:55:46.090Z,24.60
2018-09-20T18:58:14.621Z,24.60
2018-09-20T19:00:45.557Z,24.50
2018-09-20T19:03:15.565Z,24.50
2018-09-20T19:05:44.069Z,24.40
2018-09-20T19:08:12.779Z,24.40
2018-09-20T19:10:42.282Z,24.40
2018-09-20T19:13:10.792Z,24.40
2018-09-20T19:15:39.211Z,24.40
2018-09-20T19:18:07.660Z,24.40
2018-09-20T19:20:36.145Z,24.30
2018-09-20T19:23:04.591Z,24.30
2018-09-20T19:25:33.029Z,24.20
2018-09-20T19:28:01.498Z,24.20
2018-09-20T19:30:29.937Z,24.10
2018-09-20T19:32:58.337Z,24.10
2018-09-20T19:35:26.785Z,24.10
2018-09-20T19:37:55.232Z,24.10
2018-09-20T19:40:23.660Z,24.00
2018-09-20T19:42:52.196Z,24.00
2018-09-20T19:45:20.656Z,24.00
2018-09-20T19:47:49.152Z,23.90
2018-09-20T19:50:17.962Z,23.90
2018-09-20T19:52:46.511Z,23.90
2018-09-20T19:55:14.935Z,23.90
2018-09-20T19:57:43.364Z,23.80
2018-09-20T20:00:11.845Z,23.80
2018-09-20T20:02:40.282Z,23.70
2018-09-20T20:05:08.768Z,23.70
2018-09-20T20:07:37.684Z,23.70
2018-09-20T20:10:06.270Z,23.70
2018-09-20T20:12:34.821Z,23.70
2018-09-20T20:15:03.388Z,23.70
2018-09-20T20:17:31.834Z,23.70
2018-09-20T20:20:00.297Z,23.60
2018-09-20T20:22:29.070Z,23.60
2018-09-20T20:24:57.543Z,23.60
2018-09-20T20:27:25.983Z,23.60
2018-09-20T20:29:54.417Z,23.50
2018-09-20T20:32:22.941Z,23.50
2018-09-20T20:34:51.454Z,23.40
2018-09-20T20:37:19.897Z,23.30
2018-09-20T20:39:48.377Z,23.30
2018-09-20T20:42:16.805Z,23.30
2018-09-20T20:44:46.323Z,23.20
2018-09-20T20:47:14.804Z,23.20
2018-09-20T20:49:44.201Z,23.20
2018-09-20T20:52:12.693Z,23.20
2018-09-20T20:54:41.127Z,23.10
2018-09-20T20:57:09.553Z,23.10
2018-09-20T20:59:38.247Z,23.10
2018-09-20T21:02:06.856Z,23.00
2018-09-20T21:04:35.293Z,23.00
2018-09-20T21:07:03.760Z,22.90
2018-09-20T21:09:32.206Z,22.90
2018-09-20T21:12:00.640Z,22.90
2018-09-20T21:14:29.147Z,22.80
2018-09-20T21:16:57.581Z,22.80
2018-09-20T21:19:26.023Z,22.80
2018-09-20T21:21:54.462Z,22.80
2018-09-20T21:24:23.067Z,22.80
2018-09-20T21:26:52.149Z,22.80
2018-09-20T21:29:20.729Z,22.80
2018-09-20T21:31:49.175Z,22.70
2018-09-20T21:34:17.622Z,22.70
2018-09-20T21:36:46.123Z,22.60
2018-09-20T21:39:14.528Z,22.50
2018-09-20T21:41:42.949Z,22.50
2018-09-20T21:44:11.413Z,22.50
2018-09-20T21:46:39.844Z,22.50
2018-09-20T21:49:08.260Z,22.50
2018-09-20T21:51:36.729Z,22.50
2018-09-20T21:54:05.285Z,22.40
2018-09-20T21:56:33.774Z,22.40
2018-09-20T21:59:02.213Z,22.40
2018-09-20T22:01:36.113Z,22.40
2018-09-20T22:04:05.222Z,22.40
2018-09-20T22:06:35.002Z,22.40
2018-09-20T22:09:04.938Z,22.40
2018-09-20T22:11:33.384Z,22.30
2018-09-20T22:14:01.909Z,22.30
2018-09-20T22:16:30.320Z,22.20
2018-09-20T22:18:58.747Z,22.30
2018-09-20T22:21:27.168Z,22.30
2018-09-20T22:23:55.605Z,22.20
2018-09-20T22:26:24.436Z,22.30
2018-09-20T22:28:52.849Z,22.20
2018-09-20T22:31:21.684Z,22.20
2018-09-20T22:33:50.690Z,22.20
2018-09-20T22:36:19.089Z,22.10
2018-09-20T22:38:48.093Z,22.10
2018-09-20T22:41:16.560Z,22.10
2018-09-20T22:43:44.970Z,22.00
2018-09-20T22:46:13.448Z,22.00
2018-09-20T22:48:41.861Z,22.00
2018-09-20T22:51:10.912Z,21.90
2018-09-20T22:53:39.558Z,21.90
2018-09-20T22:56:08.001Z,21.80
2018-09-20T22:58:36.413Z,21.80
2018-09-20T23:01:04.828Z,21.80
2018-09-20T23:03:33.252Z,21.80
2018-09-20T23:06:01.672Z,21.80
2018-09-20T23:08:30.074Z,21.70
2018-09-20T23:10:58.505Z,21.70
2018-09-20T23:13:26.925Z,21.70
2018-09-20T23:15:55.397Z,21.70
2018-09-20T23:18:23.812Z,21.70
2018-09-20T23:20:52.214Z,21.70
2018-09-20T23:23:20.662Z,21.70
2018-09-20T23:25:49.084Z,21.70
2018-09-20T23:28:17.507Z,21.60
2018-09-20T23:30:45.899Z,21.70
2018-09-20T23:33:14.323Z,21.60
2018-09-20T23:35:42.726Z,21.60
2018-09-20T23:38:11.180Z,21.60
2018-09-20T23:40:39.605Z,21.60
2018-09-20T23:43:08.044Z,21.60
2018-09-20T23:45:36.501Z,21.50
2018-09-20T23:48:04.905Z,21.50
2018-09-20T23:50:33.422Z,21.50
2018-09-20T23:53:01.865Z,21.40
2018-09-20T23:55:30.313Z,21.40
2018-09-20T23:57:58.712Z,21.40
